Aviation Digital Data Service (ADDS)

Output produced by METARs form (1234 UTC 25 June 2019)
found at http://www.aviationweather.gov/metar/data/
 
OOSA 251150Z 19013KT 9999 SCT025 31/28 Q1001 NOSIG
TAF OOSA 251100Z 2512/2618 20015KT 8000 SCT030 
     BECMG 2515/2517 19005KT FEW014 BKN025 
     TEMPO 2523/2606 VRB03KT 
     BECMG 2607/2609 20015KT SCT025
       
OOMS 251150Z 06015KT 8000 NSC 34/28 Q1000 NOSIG
TAF OOMS 251100Z 2512/2618 07015KT 8000 NSC 
     BECMG 2518/2520 07008KT 
     PROB30 
     TEMPO 2519/2603 4000 BR BKN015 
     TEMPO 2523/2603 
     BECMG 2606/2608 07014KT